Global Enterprise — 3FCJ6 — position and weather

sailwx.info

Track history (hours):
 
Tides and Currents Weather Stations Pressure Air Temp Water Temp Dewpoint Dewpoint Depression Visibility Wind Speed Wind Dir Waves Ship Positions

Global Enterprise

Last reported at 2017-Jan-30 13:32 UTC. Time now 2017-Feb-25 00:43 UTC.
Position S 32°22' E 030°52'.
Warning: this ship's position is 25 days out of date.

Length 290 m; draft 10.7 m.

Type: Ship. MMSI: 356308000.

Date/timePositionNaut miles runAvg speedWind from/ knotsBaromVisibWave heightAir tempDewpointWater temp
2017-Jan-30 13:32S 32°22' E 030°52'1413.8
2017-Jan-30 12:32S 32°16' E 031°07'1513.7
2017-Jan-30 11:28S 32°10' E 031°23'1713.4
2017-Jan-30 10:12S 32°03' E 031°41'812.8
2017-Jan-30 09:33S 31°60' E 031°50'1312.5
2017-Jan-30 08:33S 31°55' E 032°03'1212.4
2017-Jan-30 07:33S 31°50' E 032°16'1712.2
2017-Jan-30 06:12S 31°42' E 032°34'2112.2
2017-Jan-30 04:30S 31°33' E 032°55'1312.4
2017-Jan-30 03:30S 31°28' E 033°09'  
2017-Jan-25 08:28S 20°50' E 057°39'  
Track history (hours):
 
Tides and Currents Weather Stations Pressure Air Temp Water Temp Dewpoint Dewpoint Depression Visibility Wind Speed Wind Dir Waves Ship Positions

Global Enterprise

Last reported at 2017-Jan-30 13:32 UTC. Time now 2017-Feb-25 00:43 UTC.
Position S 32°22' E 030°52'.
Warning: this ship's position is 25 days out of date.

Length 290 m; draft 10.7 m.

Type: Ship. MMSI: 356308000.

Date/timePositionNaut miles runAvg speedWind from/ knotsBaromVisibWave heightAir tempDewpointWater temp
2017-Jan-30 13:32S 32°22' E 030°52'1413.8
2017-Jan-30 12:32S 32°16' E 031°07'1513.7
2017-Jan-30 11:28S 32°10' E 031°23'1713.4
2017-Jan-30 10:12S 32°03' E 031°41'812.8
2017-Jan-30 09:33S 31°60' E 031°50'1312.5
2017-Jan-30 08:33S 31°55' E 032°03'1212.4
2017-Jan-30 07:33S 31°50' E 032°16'1712.2
2017-Jan-30 06:12S 31°42' E 032°34'2112.2
2017-Jan-30 04:30S 31°33' E 032°55'1312.4
2017-Jan-30 03:30S 31°28' E 033°09'  
2017-Jan-25 08:28S 20°50' E 057°39'  

Dump ship's entire track history